This demonstration page uses our WeatherBlox Daily Observations layout. Learn more.

Left ArrowRight Arrow

41.86663, -103.66717

Hourly Observations for January 9, 2020

Temp ( °F °C ) Dew Point ( °F °C ) Humidity (%) Winds ( mph kmh ) Pressure ( in mb ) Visibility ( mi km ) Precip ( " mm )
12:53 am 00:53 Clear 35 1.7 25 -3.9 67 67 W 14 22 29.63 1003 10 16.0934 0 0
1:53 am 01:53 Clear 33 0.6 23 -5 66 66 WNW 14 22 29.65 1004 10 16.0934 0 0
2:53 am 02:53 Clear 32 0 22 -5.6 66 66 WNW 13 20 29.69 1005 10 16.0934 0 0
3:53 am 03:53 Clear 31 -0.6 21 -6.1 67 67 WNW 14 22 29.72 1007 10 16.0934 0 0
4:53 am 04:53 Clear 32 0 19 -7.2 59 59 W 16 26 29.77 1008 10 16.0934 0 0
5:53 am 05:53 Clear 31 -0.6 19 -7.2 61 61 WNW 13 20 29.8 1009 10 16.0934 0 0
6:53 am 06:53 Clear 25 -3.9 18 -7.8 75 75 W 7 11 29.83 1010 10 16.0934 0 0
7:53 am 07:53 Sunny 26 -3.3 18 -7.8 71 71 NNW 7 11 29.84 1011 10 16.0934 0 0
8:53 am 08:53 Sunny 34 1.1 20 -6.7 56 56 W 13 20 29.85 1011 10 16.0934 0 0
9:53 am 09:53 Sunny 37 2.8 20 -6.7 50 50 W 18 30 29.85 1011 10 16.0934 0 0
10:53 am 10:53 Sunny 39 3.9 19 -7.2 45 45 W 14 22 29.83 1010 10 16.0934 0 0
11:53 am 11:53 Sunny 44 6.7 19 -7.2 37 37 W 17 28 29.8 1009 10 16.0934 0 0
12:53 pm 12:53 Sunny 45 7.2 17 -8.3 33 33 WNW 16 26 29.77 1008 10 16.0934 0 0
1:53 pm 13:53 Sunny 46 7.8 15 -9.4 29 29 WNW 21 33 29.75 1008 10 16.0934 0 0
2:53 pm 14:53 Sunny 45 7.2 15 -9.4 30 30 WNW 17 28 29.76 1008 10 16.0934 0 0
3:53 pm 15:53 Sunny 43 6.1 16 -8.9 34 34 WNW 14 22 29.8 1009 10 16.0934 0 0
4:53 pm 16:53 Clear 35 1.7 19 -7.2 52 52 NW 9 15 29.85 1011 10 16.0934 0 0
5:53 pm 17:53 Clear 33 0.6 19 -7.2 56 56 NW 9 15 29.88 1012 10 16.0934 0 0
6:53 pm 18:53 Cloudy 31 -0.6 20 -6.7 64 64 SSE 5 7 29.91 1013 10 16.0934 0 0
7:53 pm 19:53 Cloudy 29 -1.7 21 -6.1 72 72 Calm 29.91 1013 10 16.0934 0 0
8:53 pm 20:53 Cloudy 32 0 21 -6.1 64 64 S 3 6 29.9 1013 10 16.0934 0 0
9:53 pm 21:53 Cloudy 33 0.6 21 -6.1 61 61 S 5 7 29.91 1013 10 16.0934 0 0
10:53 pm 22:53 Cloudy 36 2.2 24 -4.4 62 62 SSW 7 11 29.9 1013 10 16.0934 0 0
11:53 pm 23:53 Cloudy 36 2.2 27 -2.8 70 70 WSW 12 19 29.88 1012 10 16.0934 0 0

Powered by AerisWeather